createdAt,value
2019-06-20T00:00:16.967Z,0.00
2019-06-20T00:01:16.963Z,0.00
2019-06-20T00:02:16.952Z,0.00
2019-06-20T00:03:16.931Z,0.00
2019-06-20T00:04:16.933Z,0.00
2019-06-20T00:05:16.915Z,0.00
2019-06-20T00:06:16.907Z,0.00
2019-06-20T00:07:16.894Z,0.00
2019-06-20T00:08:16.879Z,0.00
2019-06-20T00:09:16.878Z,0.00
2019-06-20T00:10:16.861Z,0.00
2019-06-20T00:11:16.850Z,0.00
2019-06-20T00:12:16.836Z,0.00
2019-06-20T00:13:16.826Z,0.00
2019-06-20T00:14:16.830Z,0.00
2019-06-20T00:15:16.810Z,0.00
2019-06-20T00:16:16.788Z,0.00
2019-06-20T00:17:16.786Z,0.00
2019-06-20T00:18:16.775Z,0.00
2019-06-20T00:19:16.773Z,0.00
2019-06-20T00:20:16.750Z,0.00
2019-06-20T00:21:16.745Z,0.00
2019-06-20T00:22:16.737Z,0.00
2019-06-20T00:23:16.734Z,0.00
2019-06-20T00:24:16.710Z,0.00
2019-06-20T00:25:16.708Z,0.00
2019-06-20T00:26:16.686Z,0.00
2019-06-20T00:27:16.677Z,0.00
2019-06-20T00:28:16.664Z,0.00
2019-06-20T00:29:16.688Z,0.00
2019-06-20T00:30:16.643Z,0.00
2019-06-20T00:31:16.626Z,0.00
2019-06-20T00:32:16.621Z,0.00
2019-06-20T00:33:16.613Z,0.00
2019-06-20T00:34:16.603Z,0.00
2019-06-20T00:35:16.600Z,0.00
2019-06-20T00:36:16.599Z,0.00
2019-06-20T00:37:16.566Z,0.00
2019-06-20T00:38:16.567Z,0.00
2019-06-20T00:39:16.538Z,0.00
2019-06-20T00:40:16.533Z,0.00
2019-06-20T00:41:16.544Z,0.00
2019-06-20T00:42:16.511Z,0.00
2019-06-20T00:43:18.252Z,0.00
2019-06-20T00:44:16.491Z,0.00
2019-06-20T00:45:16.492Z,0.00
2019-06-20T00:46:16.481Z,0.00
2019-06-20T00:47:16.458Z,0.00
2019-06-20T00:48:16.442Z,0.00
2019-06-20T00:49:16.435Z,0.00
2019-06-20T00:50:16.424Z,0.00
2019-06-20T00:51:16.419Z,0.00
2019-06-20T00:52:16.398Z,0.00
2019-06-20T00:53:16.390Z,0.00
2019-06-20T00:54:16.397Z,0.00
2019-06-20T00:55:16.386Z,0.00
2019-06-20T00:56:16.370Z,0.00
2019-06-20T00:57:16.350Z,0.00
2019-06-20T00:58:16.337Z,0.00
2019-06-20T00:59:16.322Z,0.00
2019-06-20T01:00:16.315Z,0.00
2019-06-20T01:01:16.354Z,0.00
2019-06-20T01:02:16.299Z,0.00
2019-06-20T01:03:16.311Z,0.00
2019-06-20T01:04:16.275Z,0.00
2019-06-20T01:05:16.262Z,0.00
2019-06-20T01:06:16.270Z,0.00
2019-06-20T01:07:16.244Z,0.00
2019-06-20T01:08:16.229Z,0.00
2019-06-20T01:09:16.258Z,0.00
2019-06-20T01:10:16.217Z,0.00
2019-06-20T01:11:16.199Z,0.00
2019-06-20T01:12:16.192Z,0.00
2019-06-20T01:13:32.286Z,0.00
2019-06-20T01:14:17.186Z,0.00
2019-06-20T01:15:16.152Z,0.00
2019-06-20T01:16:16.138Z,0.00
2019-06-20T01:17:16.154Z,0.00
2019-06-20T01:18:16.121Z,0.00
2019-06-20T01:19:16.115Z,0.00
2019-06-20T01:20:16.097Z,0.00
2019-06-20T01:21:16.091Z,0.00
2019-06-20T01:22:16.077Z,0.00
2019-06-20T01:23:16.072Z,0.00
2019-06-20T01:24:16.052Z,0.00
2019-06-20T01:25:16.047Z,0.00
2019-06-20T01:26:16.041Z,0.00
2019-06-20T01:27:16.025Z,0.00
2019-06-20T01:28:16.019Z,0.00
2019-06-20T01:29:16.015Z,0.00
2019-06-20T01:30:15.989Z,0.00
2019-06-20T01:31:15.986Z,0.00
2019-06-20T01:32:15.975Z,0.00
2019-06-20T01:33:15.994Z,0.00
2019-06-20T01:34:15.945Z,0.00
2019-06-20T01:35:15.942Z,0.00
2019-06-20T01:36:15.924Z,0.00
2019-06-20T01:37:15.921Z,0.00
2019-06-20T01:38:15.906Z,0.00
2019-06-20T01:39:15.914Z,0.00
2019-06-20T01:40:15.886Z,0.00
2019-06-20T01:41:15.870Z,0.00
2019-06-20T01:42:15.863Z,0.00
2019-06-20T01:43:15.852Z,0.00
2019-06-20T01:44:15.859Z,0.00
2019-06-20T01:45:15.828Z,0.00
2019-06-20T01:46:15.817Z,0.00
2019-06-20T01:47:15.808Z,0.00
2019-06-20T01:48:15.802Z,0.00
2019-06-20T01:49:15.798Z,0.00
2019-06-20T01:50:15.771Z,0.00
2019-06-20T01:51:15.762Z,0.00
2019-06-20T01:52:15.782Z,0.00
2019-06-20T01:53:15.737Z,0.00
2019-06-20T01:54:15.762Z,0.00
2019-06-20T01:55:15.717Z,0.00
2019-06-20T01:56:15.704Z,0.00
2019-06-20T01:57:15.695Z,0.00
2019-06-20T01:58:15.684Z,0.00
2019-06-20T01:59:15.673Z,0.00
2019-06-20T02:00:15.679Z,0.00
2019-06-20T02:01:15.661Z,0.00
2019-06-20T02:02:15.641Z,0.00
2019-06-20T02:03:15.631Z,0.00
2019-06-20T02:04:15.614Z,0.00
2019-06-20T02:05:15.619Z,0.00
2019-06-20T02:06:15.607Z,0.00
2019-06-20T02:07:15.588Z,0.00
2019-06-20T02:08:15.583Z,0.00
2019-06-20T02:09:15.558Z,0.00
2019-06-20T02:10:15.547Z,0.00
2019-06-20T02:11:15.550Z,0.00
2019-06-20T02:12:15.535Z,0.00
2019-06-20T02:13:15.514Z,0.00
2019-06-20T02:14:15.509Z,0.00
2019-06-20T02:15:15.497Z,0.00
2019-06-20T02:16:15.613Z,0.00
2019-06-20T02:17:15.478Z,0.00
2019-06-20T02:18:15.517Z,0.00
2019-06-20T02:19:15.450Z,0.00
2019-06-20T02:20:15.446Z,0.00
2019-06-20T02:21:15.430Z,0.00
2019-06-20T02:22:15.442Z,0.00
2019-06-20T02:23:15.406Z,0.00
2019-06-20T02:24:15.392Z,0.00
2019-06-20T02:25:15.465Z,0.00
2019-06-20T02:26:15.372Z,0.00
2019-06-20T02:27:15.364Z,0.00
2019-06-20T02:28:15.354Z,0.00
2019-06-20T02:29:15.343Z,0.00
2019-06-20T02:30:15.327Z,0.00
2019-06-20T02:31:15.351Z,0.00
2019-06-20T02:32:15.312Z,0.00
2019-06-20T02:33:15.296Z,0.00
2019-06-20T02:34:15.309Z,0.00
2019-06-20T02:35:15.277Z,0.00
2019-06-20T02:36:15.270Z,0.00
2019-06-20T02:37:15.265Z,0.00
2019-06-20T02:38:15.250Z,0.00
2019-06-20T02:39:15.236Z,0.00
2019-06-20T02:40:15.223Z,0.00
2019-06-20T02:41:15.211Z,0.00
2019-06-20T02:42:15.214Z,0.00
2019-06-20T02:43:15.188Z,0.00
2019-06-20T02:44:29.354Z,0.00
2019-06-20T02:45:16.167Z,0.00
2019-06-20T02:46:15.161Z,0.00
2019-06-20T02:47:15.177Z,0.00
2019-06-20T02:48:15.137Z,0.00
2019-06-20T02:49:15.151Z,0.00
2019-06-20T02:50:15.117Z,5.62
2019-06-20T02:51:15.101Z,5.62
2019-06-20T02:52:15.094Z,5.62
2019-06-20T02:53:15.083Z,5.62
2019-06-20T02:54:15.067Z,5.62
2019-06-20T02:55:15.123Z,5.62
2019-06-20T02:56:15.043Z,5.62
2019-06-20T02:57:15.039Z,5.62
2019-06-20T02:58:15.028Z,5.62
2019-06-20T02:59:15.020Z,5.62
2019-06-20T03:00:15.003Z,5.62
2019-06-20T03:01:15.011Z,5.62
2019-06-20T03:02:14.983Z,5.62
2019-06-20T03:03:14.995Z,11.25
2019-06-20T03:04:14.976Z,11.25
2019-06-20T03:05:14.961Z,11.25
2019-06-20T03:06:14.950Z,11.25
2019-06-20T03:07:14.932Z,11.25
2019-06-20T03:08:14.918Z,11.25
2019-06-20T03:09:14.909Z,11.25
2019-06-20T03:10:14.907Z,11.25
2019-06-20T03:11:14.889Z,16.88
2019-06-20T03:12:14.871Z,16.88
2019-06-20T03:13:14.866Z,16.88
2019-06-20T03:14:14.851Z,16.88
2019-06-20T03:15:14.861Z,16.88
2019-06-20T03:16:14.832Z,16.88
2019-06-20T03:17:14.822Z,16.88
2019-06-20T03:18:14.811Z,16.88
2019-06-20T03:19:14.834Z,16.88
2019-06-20T03:20:14.794Z,16.88
2019-06-20T03:21:14.780Z,16.88
2019-06-20T03:22:14.767Z,16.88
2019-06-20T03:23:14.771Z,16.88
2019-06-20T03:24:14.742Z,16.88
2019-06-20T03:25:14.738Z,16.88
2019-06-20T03:26:14.736Z,16.88
2019-06-20T03:27:14.720Z,22.50
2019-06-20T03:28:14.723Z,22.50
2019-06-20T03:29:14.686Z,22.50
2019-06-20T03:30:14.684Z,22.50
2019-06-20T03:31:14.699Z,22.50
2019-06-20T03:32:14.659Z,22.50
2019-06-20T03:33:14.646Z,22.50
2019-06-20T03:34:14.634Z,28.12
2019-06-20T03:35:14.628Z,28.12
2019-06-20T03:36:14.627Z,28.12
2019-06-20T03:37:14.613Z,28.12
2019-06-20T03:38:14.609Z,28.12
2019-06-20T03:39:14.587Z,28.12
2019-06-20T03:40:14.576Z,28.12
2019-06-20T03:41:14.559Z,28.12
2019-06-20T03:42:14.566Z,33.75
2019-06-20T03:43:14.545Z,33.75
2019-06-20T03:44:14.527Z,33.75
2019-06-20T03:45:14.523Z,33.75
2019-06-20T03:46:14.508Z,33.75
2019-06-20T03:47:14.522Z,39.38
2019-06-20T03:48:14.487Z,39.38
2019-06-20T03:49:14.471Z,45.00
2019-06-20T03:50:14.459Z,123.75
2019-06-20T03:51:14.453Z,123.75
2019-06-20T03:52:14.436Z,95.62
2019-06-20T03:53:14.449Z,95.62
2019-06-20T03:54:14.420Z,135.00
2019-06-20T03:55:14.413Z,135.00
2019-06-20T03:56:14.397Z,106.88
2019-06-20T03:57:14.409Z,95.62
2019-06-20T03:58:14.382Z,95.62
2019-06-20T03:59:14.368Z,95.62
2019-06-20T04:00:14.358Z,101.25
2019-06-20T04:01:14.347Z,101.25
2019-06-20T04:02:14.368Z,101.25
2019-06-20T04:03:14.317Z,106.88
2019-06-20T04:04:14.307Z,118.12
2019-06-20T04:05:14.295Z,135.00
2019-06-20T04:06:14.290Z,157.50
2019-06-20T04:07:14.280Z,163.12
2019-06-20T04:08:14.287Z,168.75
2019-06-20T04:09:14.254Z,180.00
2019-06-20T04:10:14.304Z,185.62
2019-06-20T04:11:14.235Z,191.25
2019-06-20T04:12:14.224Z,191.25
2019-06-20T04:13:14.222Z,191.25
2019-06-20T04:14:14.210Z,196.88
2019-06-20T04:15:19.165Z,196.88
2019-06-20T04:16:15.174Z,191.25
2019-06-20T04:17:14.170Z,202.50
2019-06-20T04:18:14.157Z,202.50
2019-06-20T04:19:14.167Z,202.50
2019-06-20T04:20:14.163Z,208.12
2019-06-20T04:21:14.120Z,191.25
2019-06-20T04:22:14.114Z,163.12
2019-06-20T04:23:14.097Z,163.12
2019-06-20T04:24:14.109Z,168.75
2019-06-20T04:25:14.083Z,180.00
2019-06-20T04:26:14.070Z,180.00
2019-06-20T04:27:14.058Z,185.62
2019-06-20T04:28:14.051Z,185.62
2019-06-20T04:29:14.059Z,191.25
2019-06-20T04:30:14.027Z,208.12
2019-06-20T04:31:14.016Z,202.50
2019-06-20T04:32:13.998Z,202.50
2019-06-20T04:33:13.997Z,208.12
2019-06-20T04:34:13.983Z,208.12
2019-06-20T04:35:13.989Z,208.12
2019-06-20T04:36:13.961Z,213.75
2019-06-20T04:37:13.950Z,213.75
2019-06-20T04:38:13.933Z,213.75
2019-06-20T04:39:19.306Z,219.38
2019-06-20T04:40:14.945Z,225.00
2019-06-20T04:41:13.899Z,230.62
2019-06-20T04:42:13.898Z,230.62
2019-06-20T04:43:13.896Z,230.62
2019-06-20T04:44:13.875Z,241.88
2019-06-20T04:45:13.857Z,241.88
2019-06-20T04:46:13.848Z,247.50
2019-06-20T04:47:13.840Z,247.50
2019-06-20T04:48:13.835Z,253.12
2019-06-20T04:49:13.820Z,185.62
2019-06-20T04:50:13.803Z,258.75
2019-06-20T04:51:13.834Z,270.00
2019-06-20T04:52:13.786Z,270.00
2019-06-20T04:53:13.821Z,275.62
2019-06-20T04:54:13.761Z,275.62
2019-06-20T04:55:13.757Z,270.00
2019-06-20T04:56:13.739Z,281.25
2019-06-20T04:57:13.755Z,286.88
2019-06-20T04:58:13.724Z,298.12
2019-06-20T04:59:13.713Z,303.75
2019-06-20T05:00:13.702Z,315.00
2019-06-20T05:01:13.685Z,315.00
2019-06-20T05:02:14.994Z,320.62
2019-06-20T05:03:13.664Z,343.12
2019-06-20T05:04:13.689Z,354.38
2019-06-20T05:05:13.962Z,354.38
2019-06-20T05:06:13.637Z,365.62
2019-06-20T05:07:13.621Z,371.25
2019-06-20T05:08:13.617Z,376.88
2019-06-20T05:09:13.607Z,393.75
2019-06-20T05:10:13.617Z,382.50
2019-06-20T05:11:13.586Z,388.12
2019-06-20T05:12:13.574Z,365.62
2019-06-20T05:13:13.565Z,331.88
2019-06-20T05:14:13.607Z,281.25
2019-06-20T05:15:13.537Z,219.38
2019-06-20T05:16:13.530Z,230.62
2019-06-20T05:17:13.516Z,309.38
2019-06-20T05:18:13.509Z,292.50
2019-06-20T05:19:13.509Z,309.38
2019-06-20T05:20:13.499Z,326.25
2019-06-20T05:21:13.477Z,331.88
2019-06-20T05:22:13.474Z,320.62
2019-06-20T05:23:13.451Z,303.75
2019-06-20T05:24:13.441Z,258.75
2019-06-20T05:25:13.443Z,247.50
2019-06-20T05:26:13.425Z,303.75
2019-06-20T05:27:13.412Z,303.75
2019-06-20T05:28:13.403Z,213.75
2019-06-20T05:29:13.392Z,219.38
2019-06-20T05:30:13.423Z,225.00
2019-06-20T05:31:13.373Z,270.00
2019-06-20T05:32:13.361Z,292.50
2019-06-20T05:33:13.356Z,309.38
2019-06-20T05:34:13.345Z,326.25
2019-06-20T05:35:13.327Z,354.38
2019-06-20T05:36:13.345Z,309.38
2019-06-20T05:37:13.308Z,303.75
2019-06-20T05:38:13.303Z,315.00
2019-06-20T05:39:13.293Z,225.00
2019-06-20T05:40:13.274Z,213.75
2019-06-20T05:41:13.288Z,196.88
2019-06-20T05:42:13.259Z,180.00
2019-06-20T05:43:13.247Z,168.75
2019-06-20T05:44:13.241Z,151.88
2019-06-20T05:45:13.217Z,129.38
2019-06-20T05:46:13.213Z,106.88
2019-06-20T05:47:14.115Z,101.25
2019-06-20T05:48:13.191Z,101.25
2019-06-20T05:49:13.180Z,101.25
2019-06-20T05:50:13.289Z,112.50
2019-06-20T05:51:13.232Z,112.50
2019-06-20T05:52:13.143Z,118.12
2019-06-20T05:53:13.151Z,118.12
2019-06-20T05:54:13.119Z,123.75
2019-06-20T05:55:13.118Z,135.00
2019-06-20T05:56:13.099Z,146.25
2019-06-20T05:57:13.084Z,146.25
2019-06-20T05:58:13.102Z,151.88
2019-06-20T05:59:13.082Z,157.50
2019-06-20T06:00:13.066Z,163.12
2019-06-20T06:01:13.043Z,174.38
2019-06-20T06:02:13.032Z,185.62
2019-06-20T06:03:13.831Z,196.88
2019-06-20T06:04:13.015Z,202.50
2019-06-20T06:05:13.006Z,208.12
2019-06-20T06:06:12.992Z,202.50
2019-06-20T06:07:14.252Z,180.00
2019-06-20T06:08:12.979Z,157.50
2019-06-20T06:09:12.956Z,135.00
2019-06-20T06:10:12.985Z,129.38
2019-06-20T06:11:12.941Z,118.12
2019-06-20T06:12:12.919Z,106.88
2019-06-20T06:13:12.941Z,95.62
2019-06-20T06:14:13.874Z,84.38
2019-06-20T06:15:12.909Z,73.12
2019-06-20T06:16:25.635Z,67.50
2019-06-20T06:17:13.871Z,61.88
2019-06-20T06:18:14.124Z,56.25
2019-06-20T06:19:12.846Z,50.62
2019-06-20T06:20:12.840Z,50.62
2019-06-20T06:21:12.823Z,50.62
2019-06-20T06:22:12.817Z,50.62
2019-06-20T06:23:12.808Z,50.62
2019-06-20T06:24:12.803Z,45.00
2019-06-20T06:25:12.784Z,50.62
2019-06-20T06:26:12.769Z,50.62
2019-06-20T06:27:12.757Z,50.62
2019-06-20T06:28:12.852Z,56.25
2019-06-20T06:29:12.752Z,61.88
2019-06-20T06:30:12.727Z,67.50
2019-06-20T06:31:12.719Z,67.50
2019-06-20T06:32:12.703Z,61.88
2019-06-20T06:33:12.691Z,61.88
2019-06-20T06:34:12.687Z,67.50
2019-06-20T06:35:12.720Z,73.12
2019-06-20T06:36:12.667Z,78.75
2019-06-20T06:37:12.648Z,78.75
2019-06-20T06:38:12.635Z,73.12
2019-06-20T06:39:12.626Z,73.12
2019-06-20T06:40:12.622Z,73.12
2019-06-20T06:41:12.622Z,78.75
2019-06-20T06:42:12.593Z,90.00
2019-06-20T06:43:12.579Z,101.25
2019-06-20T06:44:12.582Z,95.62
2019-06-20T06:45:12.569Z,101.25
2019-06-20T06:46:12.552Z,106.88
2019-06-20T06:47:12.551Z,106.88
2019-06-20T06:48:12.527Z,112.50
2019-06-20T06:49:12.521Z,118.12
2019-06-20T06:50:12.504Z,123.75
2019-06-20T06:51:12.506Z,123.75
2019-06-20T06:52:12.487Z,123.75
2019-06-20T06:53:12.467Z,123.75
2019-06-20T06:54:12.456Z,118.12
2019-06-20T06:55:12.452Z,112.50
2019-06-20T06:56:12.448Z,101.25
2019-06-20T06:57:12.433Z,95.62
2019-06-20T06:58:12.423Z,90.00
2019-06-20T06:59:12.406Z,84.38
2019-06-20T07:00:12.394Z,78.75
2019-06-20T07:01:12.378Z,78.75
2019-06-20T07:02:12.368Z,84.38
2019-06-20T07:03:12.375Z,84.38
2019-06-20T07:04:12.352Z,95.62
2019-06-20T07:05:12.342Z,106.88
2019-06-20T07:06:12.325Z,118.12
2019-06-20T07:07:12.324Z,129.38
2019-06-20T07:08:12.317Z,140.62
2019-06-20T07:09:12.293Z,146.25
2019-06-20T07:10:12.288Z,151.88
2019-06-20T07:11:12.266Z,151.88
2019-06-20T07:12:12.262Z,174.38
2019-06-20T07:13:12.268Z,185.62
2019-06-20T07:14:12.246Z,213.75
2019-06-20T07:15:12.231Z,225.00
2019-06-20T07:16:12.217Z,236.25
2019-06-20T07:17:12.242Z,225.00
2019-06-20T07:18:12.208Z,202.50
2019-06-20T07:19:12.207Z,196.88
2019-06-20T07:20:15.127Z,202.50
2019-06-20T07:21:12.164Z,213.75
2019-06-20T07:22:12.182Z,225.00
2019-06-20T07:23:12.143Z,247.50
2019-06-20T07:24:12.168Z,247.50
2019-06-20T07:25:12.122Z,253.12
2019-06-20T07:26:12.110Z,270.00
2019-06-20T07:27:12.090Z,281.25
2019-06-20T07:28:12.078Z,292.50
2019-06-20T07:29:12.073Z,303.75
2019-06-20T07:30:12.078Z,343.12
2019-06-20T07:31:12.082Z,371.25
2019-06-20T07:32:12.044Z,343.12
2019-06-20T07:33:12.081Z,286.88
2019-06-20T07:34:12.019Z,202.50
2019-06-20T07:35:12.035Z,146.25
2019-06-20T07:36:11.997Z,129.38
2019-06-20T07:37:11.992Z,123.75
2019-06-20T07:38:11.977Z,112.50
2019-06-20T07:39:11.961Z,95.62
2019-06-20T07:40:11.971Z,90.00
2019-06-20T07:41:11.962Z,84.38
2019-06-20T07:42:11.939Z,78.75
2019-06-20T07:43:11.920Z,78.75
2019-06-20T07:44:11.930Z,78.75
2019-06-20T07:45:11.915Z,90.00
2019-06-20T07:46:11.903Z,101.25
2019-06-20T07:47:17.648Z,106.88
2019-06-20T07:48:12.860Z,118.12
2019-06-20T07:49:11.852Z,129.38
2019-06-20T07:50:11.844Z,118.12
2019-06-20T07:51:11.857Z,112.50
2019-06-20T07:52:11.817Z,118.12
2019-06-20T07:53:11.819Z,118.12
2019-06-20T07:54:11.811Z,135.00
2019-06-20T07:55:11.786Z,146.25
2019-06-20T07:56:11.795Z,140.62
2019-06-20T07:57:11.769Z,140.62
2019-06-20T07:58:11.755Z,146.25
2019-06-20T07:59:11.750Z,140.62
2019-06-20T08:00:11.738Z,140.62
2019-06-20T08:01:11.742Z,151.88
2019-06-20T08:02:11.712Z,146.25
2019-06-20T08:03:11.708Z,146.25
2019-06-20T08:04:11.688Z,140.62
2019-06-20T08:05:11.687Z,135.00
2019-06-20T08:06:11.675Z,135.00
2019-06-20T08:07:11.656Z,146.25
2019-06-20T08:08:11.656Z,151.88
2019-06-20T08:09:11.679Z,146.25
2019-06-20T08:10:11.645Z,135.00
2019-06-20T08:11:11.706Z,135.00
2019-06-20T08:12:11.616Z,151.88
2019-06-20T08:13:11.589Z,168.75
2019-06-20T08:14:11.584Z,168.75
2019-06-20T08:15:15.703Z,174.38
2019-06-20T08:16:11.559Z,196.88
2019-06-20T08:17:11.577Z,219.38
2019-06-20T08:18:11.536Z,275.62
2019-06-20T08:19:11.525Z,303.75
2019-06-20T08:20:11.525Z,292.50
2019-06-20T08:21:11.506Z,309.38
2019-06-20T08:22:11.497Z,298.12
2019-06-20T08:23:11.612Z,258.75
2019-06-20T08:24:11.470Z,208.12
2019-06-20T08:25:11.458Z,185.62
2019-06-20T08:26:11.453Z,230.62
2019-06-20T08:27:14.781Z,236.25
2019-06-20T08:28:11.429Z,213.75
2019-06-20T08:29:20.581Z,230.62
2019-06-20T08:30:12.402Z,241.88
2019-06-20T08:31:11.401Z,264.38
2019-06-20T08:32:11.452Z,253.12
2019-06-20T08:33:12.263Z,253.12
2019-06-20T08:34:11.360Z,303.75
2019-06-20T08:35:11.370Z,371.25
2019-06-20T08:36:11.360Z,506.25
2019-06-20T08:37:11.326Z,1395.00
2019-06-20T08:38:11.320Z,849.38
2019-06-20T08:39:11.308Z,523.12
2019-06-20T08:40:11.315Z,461.25
2019-06-20T08:41:11.310Z,495.00
2019-06-20T08:42:11.284Z,556.88
2019-06-20T08:43:11.262Z,517.50
2019-06-20T08:44:11.254Z,551.25
2019-06-20T08:45:11.254Z,613.12
2019-06-20T08:46:11.227Z,624.38
2019-06-20T08:47:11.227Z,601.88
2019-06-20T08:48:11.207Z,590.62
2019-06-20T08:49:11.200Z,551.25
2019-06-20T08:50:11.226Z,669.38
2019-06-20T08:51:14.469Z,635.62
2019-06-20T08:52:11.176Z,483.75
2019-06-20T08:53:11.155Z,410.62
2019-06-20T08:54:11.146Z,641.25
2019-06-20T08:55:11.138Z,680.62
2019-06-20T08:56:11.140Z,697.50
2019-06-20T08:57:11.115Z,765.00
2019-06-20T08:58:11.099Z,652.50
2019-06-20T08:59:23.826Z,691.88
2019-06-20T09:00:12.081Z,393.75
2019-06-20T09:01:11.091Z,309.38
2019-06-20T09:02:11.070Z,258.75
2019-06-20T09:03:11.049Z,219.38
2019-06-20T09:04:11.040Z,185.62
2019-06-20T09:05:11.030Z,163.12
2019-06-20T09:06:11.037Z,151.88
2019-06-20T09:07:11.004Z,146.25
2019-06-20T09:08:11.817Z,146.25
2019-06-20T09:09:10.984Z,135.00
2019-06-20T09:10:10.970Z,123.75
2019-06-20T09:11:10.994Z,135.00
2019-06-20T09:12:10.954Z,129.38
2019-06-20T09:13:10.940Z,123.75
2019-06-20T09:14:10.929Z,146.25
2019-06-20T09:15:10.921Z,191.25
2019-06-20T09:16:23.982Z,258.75
2019-06-20T09:17:11.921Z,264.38
2019-06-20T09:18:10.892Z,168.75
2019-06-20T09:19:10.872Z,129.38
2019-06-20T09:20:10.866Z,118.12
2019-06-20T09:21:10.855Z,140.62
2019-06-20T09:22:10.851Z,180.00
2019-06-20T09:23:10.858Z,230.62
2019-06-20T09:24:10.828Z,298.12
2019-06-20T09:25:10.810Z,371.25
2019-06-20T09:26:10.807Z,528.75
2019-06-20T09:27:10.814Z,495.00
2019-06-20T09:28:10.790Z,427.50
2019-06-20T09:29:10.770Z,388.12
2019-06-20T09:30:10.760Z,360.00
2019-06-20T09:31:10.743Z,348.75
2019-06-20T09:32:10.755Z,337.50
2019-06-20T09:33:10.730Z,320.62
2019-06-20T09:34:10.730Z,320.62
2019-06-20T09:35:10.700Z,371.25
2019-06-20T09:36:10.697Z,354.38
2019-06-20T09:37:10.697Z,275.62
2019-06-20T09:38:10.672Z,281.25
2019-06-20T09:39:10.677Z,393.75
2019-06-20T09:40:10.666Z,551.25
2019-06-20T09:41:10.640Z,641.25
2019-06-20T09:42:10.629Z,855.00
2019-06-20T09:43:10.623Z,843.75
2019-06-20T09:44:10.627Z,860.62
2019-06-20T09:45:10.605Z,770.62
2019-06-20T09:46:10.589Z,624.38
2019-06-20T09:47:10.577Z,551.25
2019-06-20T09:48:10.559Z,500.62
2019-06-20T09:49:10.563Z,523.12
2019-06-20T09:50:10.573Z,500.62
2019-06-20T09:51:10.528Z,472.50
2019-06-20T09:52:10.555Z,495.00
2019-06-20T09:53:10.507Z,489.38
2019-06-20T09:54:10.494Z,523.12
2019-06-20T09:55:10.484Z,607.50
2019-06-20T09:56:10.499Z,883.12
2019-06-20T09:57:10.465Z,894.38
2019-06-20T09:58:10.457Z,748.12
2019-06-20T09:59:26.681Z,866.25
2019-06-20T10:00:11.523Z,821.25
2019-06-20T10:01:10.427Z,821.25
2019-06-20T10:02:10.413Z,1018.12
2019-06-20T10:03:10.400Z,765.00
2019-06-20T10:04:10.396Z,928.12
2019-06-20T10:05:10.389Z,652.50
2019-06-20T10:06:13.903Z,613.12
2019-06-20T10:07:10.354Z,1530.00
2019-06-20T10:08:10.348Z,624.38
2019-06-20T10:09:10.336Z,635.62
2019-06-20T10:10:10.335Z,697.50
2019-06-20T10:11:10.311Z,630.00
2019-06-20T10:12:10.325Z,635.62
2019-06-20T10:13:10.291Z,697.50
2019-06-20T10:14:10.284Z,877.50
2019-06-20T10:15:10.274Z,1895.62
2019-06-20T10:16:10.265Z,4426.88
2019-06-20T10:17:10.267Z,4353.75
2019-06-20T10:18:10.237Z,4455.00
2019-06-20T10:19:12.668Z,4438.12
2019-06-20T10:20:10.221Z,4415.62
2019-06-20T10:21:10.211Z,4415.62
2019-06-20T10:22:10.226Z,4516.88
2019-06-20T10:23:10.191Z,4500.00
2019-06-20T10:24:10.214Z,4151.25
2019-06-20T10:25:10.167Z,4308.75
2019-06-20T10:26:10.167Z,4117.50
2019-06-20T10:27:10.163Z,4083.75
2019-06-20T10:28:10.168Z,4055.62
2019-06-20T10:29:10.128Z,1800.00
2019-06-20T10:30:14.243Z,1372.50
2019-06-20T10:31:10.110Z,4258.12
2019-06-20T10:32:10.131Z,4117.50
2019-06-20T10:33:10.113Z,4044.38
2019-06-20T10:34:10.082Z,4252.50
2019-06-20T10:35:10.076Z,4078.12
2019-06-20T10:36:10.064Z,3560.62
2019-06-20T10:37:10.056Z,1440.00
2019-06-20T10:38:10.049Z,630.00
2019-06-20T10:39:10.077Z,495.00
2019-06-20T10:40:10.036Z,540.00
2019-06-20T10:41:10.023Z,821.25
2019-06-20T10:42:10.009Z,1001.25
2019-06-20T10:43:10.016Z,928.12
2019-06-20T10:44:10.034Z,1170.00
2019-06-20T10:45:09.975Z,967.50
2019-06-20T10:46:09.971Z,1040.62
2019-06-20T10:47:09.956Z,1276.88
2019-06-20T10:48:09.944Z,1001.25
2019-06-20T10:49:09.934Z,770.62
2019-06-20T10:50:09.948Z,720.00
2019-06-20T10:51:09.941Z,646.88
2019-06-20T10:52:09.908Z,849.38
2019-06-20T10:53:09.899Z,855.00
2019-06-20T10:54:09.940Z,843.75
2019-06-20T10:55:09.871Z,787.50
2019-06-20T10:56:09.891Z,669.38
2019-06-20T10:57:09.852Z,720.00
2019-06-20T10:58:09.846Z,866.25
2019-06-20T10:59:09.854Z,1546.88
2019-06-20T11:00:09.844Z,1726.88
2019-06-20T11:01:09.809Z,2295.00
2019-06-20T11:02:09.811Z,4646.25
2019-06-20T11:03:09.794Z,4612.50
2019-06-20T11:04:09.781Z,4393.12
2019-06-20T11:05:09.798Z,4421.25
2019-06-20T11:06:09.756Z,4314.38
2019-06-20T11:07:09.748Z,4218.75
2019-06-20T11:08:09.752Z,4005.00
2019-06-20T11:09:09.740Z,3628.12
2019-06-20T11:10:09.719Z,3661.88
2019-06-20T11:11:09.720Z,3898.12
2019-06-20T11:12:09.703Z,3785.62
2019-06-20T11:13:09.693Z,3290.62
2019-06-20T11:14:09.684Z,3015.00
2019-06-20T11:15:09.691Z,2604.38
2019-06-20T11:16:09.674Z,2328.75
2019-06-20T11:17:09.649Z,2019.38
2019-06-20T11:18:09.646Z,2233.12
2019-06-20T11:19:09.633Z,2137.50
2019-06-20T11:20:09.621Z,1800.00
2019-06-20T11:21:09.629Z,2109.38
2019-06-20T11:22:09.606Z,2340.00
2019-06-20T11:23:09.594Z,2227.50
2019-06-20T11:24:09.580Z,1957.50
2019-06-20T11:25:09.572Z,1676.25
2019-06-20T11:26:09.583Z,1940.62
2019-06-20T11:27:09.555Z,1861.88
2019-06-20T11:28:09.545Z,1963.12
2019-06-20T11:29:09.532Z,1935.00
2019-06-20T11:30:09.525Z,2216.25
2019-06-20T11:31:09.526Z,2396.25
2019-06-20T11:32:09.525Z,2503.12
2019-06-20T11:33:09.525Z,2823.75
2019-06-20T11:34:09.477Z,2598.75
2019-06-20T11:35:09.477Z,2868.75
2019-06-20T11:36:09.543Z,2418.75
2019-06-20T11:37:09.491Z,2593.12
2019-06-20T11:38:09.440Z,2525.62
2019-06-20T11:39:09.445Z,2115.00
2019-06-20T11:40:09.416Z,2379.38
2019-06-20T11:41:09.409Z,2233.12
2019-06-20T11:42:09.411Z,928.12
2019-06-20T11:43:09.389Z,393.75
2019-06-20T11:44:09.397Z,1423.12
2019-06-20T11:45:09.377Z,1518.75
2019-06-20T11:46:09.360Z,1490.62
2019-06-20T11:47:09.348Z,1563.75
2019-06-20T11:48:09.332Z,1361.25
2019-06-20T11:49:09.328Z,855.00
2019-06-20T11:50:09.340Z,708.75
2019-06-20T11:51:09.307Z,720.00
2019-06-20T11:52:09.409Z,883.12
2019-06-20T11:53:09.285Z,860.62
2019-06-20T11:54:09.274Z,607.50
2019-06-20T11:55:09.264Z,776.25
2019-06-20T11:56:09.309Z,517.50
2019-06-20T11:57:09.245Z,675.00
2019-06-20T11:58:09.231Z,511.88
2019-06-20T11:59:09.246Z,444.38
2019-06-20T12:00:09.213Z,405.00
2019-06-20T12:01:09.197Z,382.50
2019-06-20T12:02:09.211Z,365.62
2019-06-20T12:03:09.175Z,382.50
2019-06-20T12:04:09.544Z,399.38
2019-06-20T12:05:09.160Z,393.75
2019-06-20T12:06:09.166Z,388.12
2019-06-20T12:07:09.139Z,376.88
2019-06-20T12:08:09.130Z,371.25
2019-06-20T12:09:09.155Z,376.88
2019-06-20T12:10:09.111Z,393.75
2019-06-20T12:11:09.095Z,438.75
2019-06-20T12:12:09.087Z,495.00
2019-06-20T12:13:09.083Z,585.00
2019-06-20T12:14:09.064Z,624.38
2019-06-20T12:15:09.069Z,601.88
2019-06-20T12:16:09.051Z,562.50
2019-06-20T12:17:09.034Z,568.12
2019-06-20T12:18:09.016Z,663.75
2019-06-20T12:19:09.006Z,866.25
2019-06-20T12:20:09.022Z,1029.38
2019-06-20T12:21:09.004Z,1012.50
2019-06-20T12:22:08.975Z,1040.62
2019-06-20T12:23:08.968Z,1006.88
2019-06-20T12:24:08.989Z,933.75
2019-06-20T12:25:08.951Z,849.38
2019-06-20T12:26:08.940Z,793.12
2019-06-20T12:27:08.932Z,826.88
2019-06-20T12:28:08.931Z,990.00
2019-06-20T12:29:08.901Z,945.00
2019-06-20T12:30:08.905Z,568.12
2019-06-20T12:31:18.888Z,444.38
2019-06-20T12:32:10.129Z,399.38
2019-06-20T12:33:08.866Z,371.25
2019-06-20T12:34:08.849Z,376.88
2019-06-20T12:35:08.855Z,382.50
2019-06-20T12:36:08.833Z,433.12
2019-06-20T12:37:08.823Z,528.75
2019-06-20T12:38:08.810Z,618.75
2019-06-20T12:39:08.798Z,691.88
2019-06-20T12:40:08.805Z,680.62